createdAt,value
2018-08-30T00:00:05.222Z,101023.82
2018-08-30T00:02:35.091Z,101032.03
2018-08-30T00:05:06.256Z,101040.53
2018-08-30T00:07:39.486Z,101042.70
2018-08-30T00:10:14.541Z,101041.78
2018-08-30T00:12:57.349Z,101040.36
2018-08-30T00:15:27.147Z,101039.83
2018-08-30T00:17:55.854Z,101042.20
2018-08-30T00:23:28.256Z,101051.78
2018-08-30T00:26:01.756Z,101053.50
2018-08-30T00:28:36.576Z,101056.00
2018-08-30T00:33:59.784Z,101065.04
2018-08-30T00:36:31.345Z,101074.45
2018-08-30T00:39:03.416Z,101071.44
2018-08-30T00:41:46.413Z,101074.85
2018-08-30T00:44:22.658Z,101077.31
2018-08-30T00:46:59.940Z,101078.53
2018-08-30T00:49:32.997Z,101073.55
2018-08-30T00:52:12.553Z,101079.13
2018-08-30T00:54:48.619Z,101084.64
2018-08-30T00:57:33.212Z,101081.73
2018-08-30T01:00:20.519Z,101082.25
2018-08-30T01:03:03.349Z,101086.80
2018-08-30T01:05:38.957Z,101091.68
2018-08-30T01:08:11.809Z,101097.61
2018-08-30T01:10:42.388Z,101100.62
2018-08-30T01:13:19.140Z,101101.39
2018-08-30T01:16:02.690Z,101104.80
2018-08-30T01:18:49.395Z,101102.20
2018-08-30T01:24:02.095Z,101107.52
2018-08-30T01:26:35.395Z,101109.89
2018-08-30T01:29:09.043Z,101111.44
2018-08-30T01:31:45.886Z,101111.73
2018-08-30T01:37:07.099Z,101121.24
2018-08-30T01:40:00.112Z,101122.53
2018-08-30T01:42:40.269Z,101132.55
2018-08-30T01:45:22.155Z,101121.72
2018-08-30T01:51:03.847Z,101124.60
2018-08-30T01:53:41.168Z,101124.87
2018-08-30T01:56:14.429Z,101122.70
2018-08-30T02:02:05.584Z,101126.97
2018-08-30T02:04:43.427Z,101124.41
2018-08-30T02:07:20.241Z,101130.26
2018-08-30T02:09:59.403Z,101135.57
2018-08-30T02:12:35.990Z,101134.55
2018-08-30T02:18:10.667Z,101127.62
2018-08-30T02:21:00.266Z,101122.51
2018-08-30T02:26:49.549Z,101124.94
2018-08-30T02:29:21.638Z,101123.02
2018-08-30T02:31:53.774Z,101120.48
2018-08-30T02:37:49.058Z,101131.47
2018-08-30T02:40:37.807Z,101128.80
2018-08-30T02:46:39.409Z,101137.70
2018-08-30T02:52:09.534Z,101151.64
2018-08-30T02:58:53.029Z,101154.61
2018-08-30T03:04:35.146Z,101157.94
2018-08-30T03:07:20.147Z,101168.59
2018-08-30T03:09:54.930Z,101157.80
2018-08-30T03:15:22.150Z,101159.63
2018-08-30T03:18:11.200Z,101159.37
2018-08-30T03:20:58.604Z,101159.08
2018-08-30T03:26:27.832Z,101161.96
2018-08-30T03:32:34.730Z,101176.64
2018-08-30T03:35:15.109Z,101184.94
2018-08-30T03:38:03.100Z,101180.47
2018-08-30T03:44:03.306Z,101188.52
2018-08-30T03:46:52.671Z,101189.53
2018-08-30T03:49:33.781Z,101196.95
2018-08-30T03:52:14.572Z,101194.84
2018-08-30T03:54:53.372Z,101193.49
2018-08-30T03:57:31.168Z,101196.98
2018-08-30T04:00:33.870Z,101198.36
2018-08-30T04:03:17.788Z,101204.42
2018-08-30T04:05:55.424Z,101207.00
2018-08-30T04:11:17.925Z,101217.62
2018-08-30T04:20:25.747Z,101216.23
2018-08-30T04:26:52.729Z,101222.33
2018-08-30T04:32:43.431Z,101220.37
2018-08-30T04:35:29.005Z,101211.23
2018-08-30T04:41:05.599Z,101221.14
2018-08-30T04:56:00.607Z,101223.71
2018-08-30T04:58:30.261Z,101232.58
2018-08-30T05:00:59.241Z,101237.31
2018-08-30T05:03:29.468Z,101242.06
2018-08-30T05:05:58.631Z,101246.73
2018-08-30T05:08:27.741Z,101243.99
2018-08-30T05:10:56.799Z,101247.95
2018-08-30T05:13:25.798Z,101255.44
2018-08-30T05:15:55.272Z,101255.97
2018-08-30T05:18:23.948Z,101257.77
2018-08-30T05:20:52.673Z,101253.87
2018-08-30T05:23:21.564Z,101259.52
2018-08-30T05:25:50.360Z,101259.09
2018-08-30T05:28:19.158Z,101264.27
2018-08-30T05:30:47.996Z,101257.30
2018-08-30T05:33:17.282Z,101265.69
2018-08-30T05:35:46.748Z,101270.11
2018-08-30T05:38:15.324Z,101270.59
2018-08-30T05:40:44.454Z,101271.84
2018-08-30T05:43:13.194Z,101278.31
2018-08-30T05:45:42.624Z,101279.91
2018-08-30T05:48:11.408Z,101288.08
2018-08-30T05:50:40.720Z,101287.39
2018-08-30T05:53:09.614Z,101289.25
2018-08-30T05:55:38.273Z,101292.20
2018-08-30T05:58:06.952Z,101294.80
2018-08-30T06:00:35.617Z,101300.50
2018-08-30T06:03:04.924Z,101296.63
2018-08-30T06:05:33.532Z,101299.38
2018-08-30T06:08:02.317Z,101307.35
2018-08-30T06:10:31.770Z,101297.07
2018-08-30T06:13:00.639Z,101301.41
2018-08-30T06:15:29.424Z,101305.09
2018-08-30T06:17:58.211Z,101303.39
2018-08-30T06:20:26.876Z,101306.60
2018-08-30T06:22:56.482Z,101319.95
2018-08-30T06:25:25.501Z,101318.23
2018-08-30T06:27:54.576Z,101325.67
2018-08-30T06:30:23.251Z,101322.59
2018-08-30T06:32:52.325Z,101324.30
2018-08-30T06:35:21.055Z,101331.68
2018-08-30T06:37:50.123Z,101333.28
2018-08-30T06:40:19.324Z,101333.50
2018-08-30T06:42:47.822Z,101339.28
2018-08-30T06:45:16.954Z,101336.64
2018-08-30T06:47:45.898Z,101342.11
2018-08-30T06:50:14.479Z,101343.20
2018-08-30T06:52:43.143Z,101344.46
2018-08-30T06:55:12.829Z,101355.87
2018-08-30T06:57:42.162Z,101342.11
2018-08-30T07:00:11.172Z,101351.48
2018-08-30T07:02:39.908Z,101352.80
2018-08-30T07:05:08.583Z,101356.60
2018-08-30T07:07:37.358Z,101357.42
2018-08-30T07:14:59.783Z,101358.64
2018-08-30T07:17:28.753Z,101347.10
2018-08-30T07:19:57.680Z,101351.81
2018-08-30T07:22:26.919Z,101360.84
2018-08-30T07:24:55.702Z,101367.48
2018-08-30T07:27:24.997Z,101363.64
2018-08-30T07:29:54.649Z,101369.40
2018-08-30T07:32:23.471Z,101361.34
2018-08-30T07:34:52.476Z,101366.41
2018-08-30T07:37:21.060Z,101366.97
2018-08-30T07:39:49.795Z,101374.56
2018-08-30T07:42:18.446Z,101376.70
2018-08-30T07:44:47.304Z,101379.81
2018-08-30T07:47:16.534Z,101379.57
2018-08-30T07:49:45.097Z,101384.86
2018-08-30T07:52:14.622Z,101383.78
2018-08-30T07:54:43.258Z,101379.75
2018-08-30T07:57:11.782Z,101390.42
2018-08-30T07:59:41.266Z,101392.84
2018-08-30T08:02:10.863Z,101389.14
2018-08-30T08:04:39.429Z,101396.77
2018-08-30T08:07:08.809Z,101397.84
2018-08-30T08:09:37.536Z,101401.13
2018-08-30T08:12:06.439Z,101407.36
2018-08-30T08:14:35.403Z,101403.21
2018-08-30T08:17:05.150Z,101410.94
2018-08-30T08:19:35.613Z,101414.77
2018-08-30T08:22:04.323Z,101413.06
2018-08-30T08:24:32.944Z,101414.86
2018-08-30T08:27:02.167Z,101417.11
2018-08-30T08:29:31.311Z,101419.94
2018-08-30T08:32:00.229Z,101420.39
2018-08-30T08:34:28.908Z,101418.73
2018-08-30T08:36:57.767Z,101420.46
2018-08-30T08:39:27.184Z,101422.78
2018-08-30T08:41:56.033Z,101423.70
2018-08-30T08:44:24.950Z,101433.91
2018-08-30T08:46:53.633Z,101435.79
2018-08-30T08:49:22.538Z,101435.39
2018-08-30T08:51:51.447Z,101434.02
2018-08-30T08:54:20.380Z,101435.53
2018-08-30T08:56:49.235Z,101437.48
2018-08-30T08:59:17.985Z,101446.38
2018-08-30T09:01:46.497Z,101455.05
2018-08-30T09:04:15.291Z,101448.44
2018-08-30T09:06:44.328Z,101458.03
2018-08-30T09:09:13.484Z,101446.07
2018-08-30T09:11:42.956Z,101459.42
2018-08-30T09:14:12.050Z,101454.06
2018-08-30T09:16:41.365Z,101459.72
2018-08-30T09:19:13.145Z,101443.46
2018-08-30T09:21:41.807Z,101449.81
2018-08-30T09:24:11.378Z,101450.83
2018-08-30T09:26:40.188Z,101443.94
2018-08-30T09:29:09.145Z,101444.99
2018-08-30T09:31:38.811Z,101451.53
2018-08-30T09:34:07.404Z,101455.55
2018-08-30T09:36:36.182Z,101450.61
2018-08-30T09:39:06.942Z,101443.14
2018-08-30T09:41:35.942Z,101445.28
2018-08-30T09:44:05.576Z,101444.11
2018-08-30T09:46:34.302Z,101451.98
2018-08-30T09:49:03.552Z,101450.81
2018-08-30T09:51:35.028Z,101457.69
2018-08-30T09:54:04.512Z,101455.59
2018-08-30T09:56:33.721Z,101462.58
2018-08-30T09:59:02.655Z,101454.52
2018-08-30T10:01:36.417Z,101454.55
2018-08-30T10:04:05.165Z,101465.56
2018-08-30T10:06:33.977Z,101466.38
2018-08-30T10:09:02.848Z,101458.88
2018-08-30T10:11:31.509Z,101459.68
2018-08-30T10:14:00.670Z,101459.88
2018-08-30T10:16:29.464Z,101455.14
2018-08-30T10:18:58.418Z,101456.27
2018-08-30T10:21:26.984Z,101454.84
2018-08-30T10:23:56.158Z,101451.50
2018-08-30T10:26:25.596Z,101452.83
2018-08-30T10:28:54.214Z,101455.42
2018-08-30T10:31:23.063Z,101450.99
2018-08-30T10:33:51.950Z,101458.38
2018-08-30T10:36:20.892Z,101460.59
2018-08-30T10:38:50.483Z,101459.80
2018-08-30T10:41:19.278Z,101463.34
2018-08-30T10:43:48.838Z,101454.52
2018-08-30T10:46:17.593Z,101458.42
2018-08-30T10:48:46.388Z,101448.22
2018-08-30T10:51:15.001Z,101461.38
2018-08-30T10:53:44.005Z,101457.78
2018-08-30T10:56:15.443Z,101457.77
2018-08-30T10:58:44.048Z,101462.57
2018-08-30T11:01:12.693Z,101455.83
2018-08-30T11:03:41.370Z,101454.44
2018-08-30T11:06:10.300Z,101459.78
2018-08-30T11:08:40.134Z,101456.55
2018-08-30T11:11:08.961Z,101460.30
2018-08-30T11:13:37.744Z,101463.05
2018-08-30T11:16:06.418Z,101472.50
2018-08-30T11:18:35.100Z,101469.62
2018-08-30T11:21:04.108Z,101470.61
2018-08-30T11:23:33.449Z,101470.11
2018-08-30T11:26:02.631Z,101458.59
2018-08-30T11:28:31.638Z,101464.53
2018-08-30T11:31:00.621Z,101457.45
2018-08-30T11:33:29.690Z,101457.98
2018-08-30T11:35:58.327Z,101458.08
2018-08-30T11:38:28.124Z,101443.05
2018-08-30T11:40:56.836Z,101451.20
2018-08-30T11:43:25.665Z,101454.45
2018-08-30T11:46:00.933Z,101450.73
2018-08-30T11:48:29.780Z,101450.05
2018-08-30T11:50:58.757Z,101458.20
2018-08-30T11:53:27.457Z,101471.17
2018-08-30T11:55:56.136Z,101463.87
2018-08-30T11:58:25.197Z,101467.43
2018-08-30T12:00:53.851Z,101469.50
2018-08-30T12:03:24.597Z,101478.84
2018-08-30T12:05:53.892Z,101477.72
2018-08-30T12:08:22.783Z,101480.50
2018-08-30T12:10:52.403Z,101482.55
2018-08-30T12:13:20.995Z,101478.70
2018-08-30T12:15:50.088Z,101479.38
2018-08-30T12:18:18.905Z,101475.20
2018-08-30T12:20:47.628Z,101477.99
2018-08-30T12:23:16.217Z,101476.28
2018-08-30T12:25:44.828Z,101472.68
2018-08-30T12:28:13.709Z,101465.78
2018-08-30T12:30:42.366Z,101475.75
2018-08-30T12:33:11.200Z,101480.98
2018-08-30T12:35:40.464Z,101468.14
2018-08-30T12:38:09.233Z,101477.69
2018-08-30T12:40:37.966Z,101470.42
2018-08-30T12:43:07.728Z,101474.55
2018-08-30T12:45:36.480Z,101465.33
2018-08-30T12:48:05.694Z,101472.28
2018-08-30T12:50:34.295Z,101474.78
2018-08-30T12:53:03.115Z,101473.55
2018-08-30T12:55:31.989Z,101464.20
2018-08-30T12:58:01.620Z,101468.33
2018-08-30T13:00:30.456Z,101462.78
2018-08-30T13:02:59.139Z,101467.66
2018-08-30T13:05:28.459Z,101473.07
2018-08-30T13:07:57.163Z,101475.55
2018-08-30T13:10:25.769Z,101473.30
2018-08-30T13:12:55.066Z,101475.23
2018-08-30T13:15:23.960Z,101474.50
2018-08-30T13:17:52.504Z,101476.04
2018-08-30T13:20:22.159Z,101476.00
2018-08-30T13:22:51.365Z,101475.22
2018-08-30T13:25:20.168Z,101479.02
2018-08-30T13:27:49.151Z,101477.94
2018-08-30T13:30:18.480Z,101474.41
2018-08-30T13:32:47.094Z,101468.08
2018-08-30T13:35:15.972Z,101469.47
2018-08-30T13:37:45.034Z,101457.13
2018-08-30T13:40:13.919Z,101452.25
2018-08-30T13:42:42.817Z,101454.73
2018-08-30T13:45:11.930Z,101454.58
2018-08-30T13:47:40.374Z,101459.75
2018-08-30T13:50:09.916Z,101467.91
2018-08-30T13:52:38.368Z,101463.14
2018-08-30T13:55:07.715Z,101469.30
2018-08-30T13:57:37.251Z,101459.04
2018-08-30T14:00:06.166Z,101468.97
2018-08-30T14:02:34.792Z,101468.42
2018-08-30T14:05:03.869Z,101470.58
2018-08-30T14:07:32.804Z,101467.45
2018-08-30T14:10:02.145Z,101469.52
2018-08-30T14:12:30.499Z,101471.30
2018-08-30T14:14:59.633Z,101463.08
2018-08-30T14:17:28.801Z,101462.53
2018-08-30T14:19:57.882Z,101473.52
2018-08-30T14:22:26.418Z,101459.92
2018-08-30T14:24:55.090Z,101457.83
2018-08-30T14:27:24.036Z,101462.39
2018-08-30T14:29:52.680Z,101470.27
2018-08-30T14:32:21.503Z,101473.62
2018-08-30T14:34:50.428Z,101471.41
2018-08-30T14:37:19.147Z,101463.94
2018-08-30T14:39:49.013Z,101460.50
2018-08-30T14:42:17.921Z,101468.13
2018-08-30T14:44:46.558Z,101450.20
2018-08-30T14:47:15.452Z,101465.11
2018-08-30T14:49:43.912Z,101457.69
2018-08-30T14:52:13.549Z,101454.75
2018-08-30T14:54:42.570Z,101445.78
2018-08-30T14:57:11.981Z,101448.36
2018-08-30T14:59:41.125Z,101450.04
2018-08-30T15:02:10.901Z,101455.20
2018-08-30T15:04:40.185Z,101451.80
2018-08-30T15:07:08.977Z,101445.69
2018-08-30T15:09:37.861Z,101447.63
2018-08-30T15:12:06.770Z,101447.70
2018-08-30T15:14:35.613Z,101441.35
2018-08-30T15:17:04.446Z,101432.48
2018-08-30T15:19:32.866Z,101442.27
2018-08-30T15:22:01.432Z,101446.33
2018-08-30T15:24:30.985Z,101442.16
2018-08-30T15:26:59.748Z,101452.02
2018-08-30T15:29:29.493Z,101445.88
2018-08-30T15:31:59.004Z,101447.37
2018-08-30T15:34:28.131Z,101458.73
2018-08-30T15:36:57.912Z,101443.75
2018-08-30T15:39:26.683Z,101457.42
2018-08-30T15:41:55.504Z,101450.61
2018-08-30T15:44:24.240Z,101455.15
2018-08-30T15:46:53.032Z,101464.26
2018-08-30T15:49:28.268Z,101466.36
2018-08-30T15:51:56.955Z,101469.39
2018-08-30T15:54:25.910Z,101463.97
2018-08-30T15:56:54.665Z,101467.11
2018-08-30T15:59:23.362Z,101472.33
2018-08-30T16:01:52.032Z,101473.81
2018-08-30T16:04:20.747Z,101468.65
2018-08-30T16:06:49.713Z,101471.16
2018-08-30T16:09:18.901Z,101471.37
2018-08-30T16:11:48.527Z,101469.66
2018-08-30T16:14:17.423Z,101469.29
2018-08-30T16:16:46.072Z,101468.55
2018-08-30T16:19:15.067Z,101472.43
2018-08-30T16:21:44.657Z,101470.59
2018-08-30T16:24:14.091Z,101471.86
2018-08-30T16:26:43.678Z,101468.91
2018-08-30T16:29:12.660Z,101462.06
2018-08-30T16:31:41.573Z,101465.66
2018-08-30T16:34:10.321Z,101464.09
2018-08-30T16:36:39.099Z,101456.27
2018-08-30T16:39:10.146Z,101466.14
2018-08-30T16:41:38.940Z,101463.31
2018-08-30T16:44:08.533Z,101463.84
2018-08-30T16:46:37.200Z,101464.75
2018-08-30T16:49:06.486Z,101469.45
2018-08-30T16:51:35.254Z,101466.40
2018-08-30T16:54:04.963Z,101466.44
2018-08-30T16:56:33.523Z,101470.53
2018-08-30T16:59:03.239Z,101465.77
2018-08-30T17:01:31.721Z,101474.49
2018-08-30T17:04:01.038Z,101467.73
2018-08-30T17:06:30.860Z,101462.11
2018-08-30T17:09:06.545Z,101463.27
2018-08-30T17:11:35.327Z,101468.86
2018-08-30T17:14:04.949Z,101466.26
2018-08-30T17:16:33.849Z,101466.34
2018-08-30T17:19:12.825Z,101471.95
2018-08-30T17:21:41.352Z,101466.55
2018-08-30T17:24:10.461Z,101467.37
2018-08-30T17:26:39.309Z,101464.95
2018-08-30T17:29:08.064Z,101463.94
2018-08-30T17:31:36.701Z,101469.38
2018-08-30T17:34:06.161Z,101475.13
2018-08-30T17:36:34.827Z,101471.01
2018-08-30T17:39:04.984Z,101468.95
2018-08-30T17:41:33.781Z,101465.26
2018-08-30T17:44:02.490Z,101466.05
2018-08-30T17:46:31.290Z,101471.42
2018-08-30T17:48:59.873Z,101471.91
2018-08-30T17:51:28.806Z,101475.62
2018-08-30T17:53:57.646Z,101476.33
2018-08-30T17:56:26.452Z,101472.83
2018-08-30T17:58:55.920Z,101479.73
2018-08-30T18:01:24.754Z,101479.89
2018-08-30T18:03:53.177Z,101492.33
2018-08-30T18:06:21.888Z,101484.03
2018-08-30T18:08:50.990Z,101491.80
2018-08-30T18:11:19.639Z,101496.86
2018-08-30T18:13:48.206Z,101498.86
2018-08-30T18:16:16.833Z,101500.05
2018-08-30T18:18:46.563Z,101501.73
2018-08-30T18:21:15.390Z,101504.63
2018-08-30T18:23:44.383Z,101509.73
2018-08-30T18:26:12.967Z,101510.64
2018-08-30T18:28:41.677Z,101509.37
2018-08-30T18:31:11.168Z,101509.84
2018-08-30T18:33:39.985Z,101515.16
2018-08-30T18:36:09.393Z,101516.94
2018-08-30T18:38:38.852Z,101518.27
2018-08-30T18:41:07.545Z,101515.30
2018-08-30T18:43:37.042Z,101522.13
2018-08-30T18:46:06.004Z,101520.50
2018-08-30T18:48:34.916Z,101529.45
2018-08-30T18:51:03.609Z,101530.60
2018-08-30T18:53:32.251Z,101526.52
2018-08-30T18:56:00.901Z,101531.61
2018-08-30T18:58:30.175Z,101540.38
2018-08-30T19:00:58.954Z,101543.58
2018-08-30T19:03:27.506Z,101545.11
2018-08-30T19:05:56.409Z,101546.95
2018-08-30T19:08:25.695Z,101553.80
2018-08-30T19:10:54.786Z,101552.53
2018-08-30T19:13:25.488Z,101552.78
2018-08-30T19:16:00.391Z,101553.47
2018-08-30T19:18:34.655Z,101558.54
2018-08-30T19:21:03.949Z,101561.35
2018-08-30T19:23:33.374Z,101553.16
2018-08-30T19:26:03.184Z,101565.66
2018-08-30T19:28:32.927Z,101567.95
2018-08-30T19:31:02.149Z,101565.81
2018-08-30T19:33:31.227Z,101565.93
2018-08-30T19:36:05.278Z,101568.58
2018-08-30T19:38:34.241Z,101564.65
2018-08-30T19:41:08.642Z,101569.43
2018-08-30T19:43:37.502Z,101574.81
2018-08-30T19:46:06.796Z,101575.08
2018-08-30T19:48:35.853Z,101577.24
2018-08-30T19:51:11.495Z,101571.17
2018-08-30T19:53:40.733Z,101569.56
2018-08-30T19:56:10.031Z,101572.21
2018-08-30T19:58:39.251Z,101573.90
2018-08-30T20:01:08.686Z,101577.47
2018-08-30T20:03:37.799Z,101575.27
2018-08-30T20:06:07.337Z,101575.89
2018-08-30T20:08:36.202Z,101572.15
2018-08-30T20:11:04.955Z,101574.95
2018-08-30T20:13:34.653Z,101573.77
2018-08-30T20:16:03.937Z,101572.25
2018-08-30T20:18:33.393Z,101568.86
2018-08-30T20:21:03.030Z,101577.55
2018-08-30T20:23:32.431Z,101572.03
2018-08-30T20:26:04.750Z,101573.29
2018-08-30T20:31:05.321Z,101568.65
2018-08-30T20:33:35.653Z,101573.10
2018-08-30T20:36:04.309Z,101570.86
2018-08-30T20:38:32.838Z,101581.15
2018-08-30T20:41:01.538Z,101576.75
2018-08-30T20:43:30.247Z,101572.34
2018-08-30T20:45:58.893Z,101572.92
2018-08-30T20:48:28.260Z,101572.98
2018-08-30T20:50:57.119Z,101566.52
2018-08-30T20:53:26.121Z,101573.95
2018-08-30T20:55:55.202Z,101577.77
2018-08-30T20:58:24.257Z,101575.64
2018-08-30T21:00:52.823Z,101583.30
2018-08-30T21:03:21.513Z,101579.30
2018-08-30T21:05:50.880Z,101583.16
2018-08-30T21:08:19.400Z,101576.11
2018-08-30T21:10:48.605Z,101581.91
2018-08-30T21:13:17.292Z,101587.84
2018-08-30T21:15:46.049Z,101582.30
2018-08-30T21:18:14.878Z,101589.67
2018-08-30T21:20:44.221Z,101589.70
2018-08-30T21:23:12.908Z,101597.20
2018-08-30T21:25:41.505Z,101593.67
2018-08-30T21:28:10.079Z,101583.97
2018-08-30T21:30:39.001Z,101580.45
2018-08-30T21:33:07.848Z,101583.97
2018-08-30T21:35:36.367Z,101582.53
2018-08-30T21:38:05.290Z,101588.00
2018-08-30T21:40:33.778Z,101592.81
2018-08-30T21:43:02.504Z,101588.56
2018-08-30T21:45:31.090Z,101589.45
2018-08-30T21:47:59.668Z,101592.09
2018-08-30T21:50:29.556Z,101589.16
2018-08-30T21:52:58.404Z,101589.66
2018-08-30T21:55:27.224Z,101591.16
2018-08-30T21:57:55.750Z,101587.81
2018-08-30T22:00:24.309Z,101591.30
2018-08-30T22:02:52.865Z,101586.61
2018-08-30T22:05:21.414Z,101594.06
2018-08-30T22:07:49.988Z,101594.66
2018-08-30T22:10:18.623Z,101592.84
2018-08-30T22:12:47.208Z,101592.34
2018-08-30T22:15:16.298Z,101594.33
2018-08-30T22:17:44.914Z,101597.39
2018-08-30T22:20:13.481Z,101592.24
2018-08-30T22:22:42.401Z,101595.47
2018-08-30T22:25:10.861Z,101596.37
2018-08-30T22:27:39.395Z,101592.42
2018-08-30T22:30:09.582Z,101593.68
2018-08-30T22:32:38.873Z,101603.53
2018-08-30T22:35:07.791Z,101600.18
2018-08-30T22:37:36.732Z,101594.90
2018-08-30T22:40:06.088Z,101597.62
2018-08-30T22:42:34.536Z,101601.97
2018-08-30T22:45:03.787Z,101606.34
2018-08-30T22:47:32.736Z,101598.86
2018-08-30T22:50:03.461Z,101599.69
2018-08-30T22:52:31.948Z,101598.95
2018-08-30T22:55:00.825Z,101595.07
2018-08-30T22:57:29.774Z,101588.11
2018-08-30T22:59:58.569Z,101594.41
2018-08-30T23:02:27.509Z,101595.23
2018-08-30T23:04:56.376Z,101590.09
2018-08-30T23:07:25.184Z,101593.80
2018-08-30T23:09:53.788Z,101590.54
2018-08-30T23:12:22.421Z,101591.03
2018-08-30T23:14:53.330Z,101591.92
2018-08-30T23:17:22.554Z,101584.84
2018-08-30T23:19:51.101Z,101589.48
2018-08-30T23:22:20.323Z,101585.57
2018-08-30T23:24:49.111Z,101585.95
2018-08-30T23:27:18.670Z,101582.00
2018-08-30T23:29:47.257Z,101582.56
2018-08-30T23:32:15.869Z,101585.52
2018-08-30T23:34:44.472Z,101587.26
2018-08-30T23:37:13.082Z,101588.23
2018-08-30T23:39:41.633Z,101590.48
2018-08-30T23:42:11.257Z,101582.15
2018-08-30T23:44:39.901Z,101586.06
2018-08-30T23:47:08.484Z,101584.74
2018-08-30T23:49:36.925Z,101586.08
2018-08-30T23:52:05.645Z,101586.08
2018-08-30T23:54:34.836Z,101582.72
2018-08-30T23:57:03.363Z,101586.90
2018-08-30T23:59:42.907Z,101587.54
